sensor_id;sensor_type;location;lat;lon;timestamp;pressure;altitude;pressure_sealevel;temperature;humidity
65758;BME280;52495;52.208;5.158;2023-05-07T00:00:37;101556.84;;;15.32;100.00
65758;BME280;52495;52.208;5.158;2023-05-07T00:03:05;101557.78;;;15.29;100.00
65758;BME280;52495;52.208;5.158;2023-05-07T00:05:32;101563.84;;;15.30;100.00
65758;BME280;52495;52.208;5.158;2023-05-07T00:07:59;101564.72;;;15.30;100.00
65758;BME280;52495;52.208;5.158;2023-05-07T00:10:26;101560.41;;;15.29;100.00
65758;BME280;52495;52.208;5.158;2023-05-07T00:12:54;101562.06;;;15.32;100.00
65758;BME280;52495;52.208;5.158;2023-05-07T00:15:20;101557.78;;;15.29;100.00
65758;BME280;52495;52.208;5.158;2023-05-07T00:17:47;101553.69;;;15.21;100.00
65758;BME280;52495;52.208;5.158;2023-05-07T00:20:14;101554.56;;;15.20;100.00
65758;BME280;52495;52.208;5.158;2023-05-07T00:22:41;101558.13;;;15.17;100.00
65758;BME280;52495;52.208;5.158;2023-05-07T00:25:08;101546.81;;;15.18;100.00
65758;BME280;52495;52.208;5.158;2023-05-07T00:27:35;101555.50;;;15.17;100.00
65758;BME280;52495;52.208;5.158;2023-05-07T00:30:04;101553.81;;;15.14;100.00
65758;BME280;52495;52.208;5.158;2023-05-07T00:32:31;101564.31;;;15.11;100.00
65758;BME280;52495;52.208;5.158;2023-05-07T00:34:58;101563.31;;;15.17;100.00
65758;BME280;52495;52.208;5.158;2023-05-07T00:37:25;101553.75;;;15.17;100.00
65758;BME280;52495;52.208;5.158;2023-05-07T00:40:02;101558.00;;;15.20;100.00
65758;BME280;52495;52.208;5.158;2023-05-07T00:42:32;101550.31;;;15.17;100.00
65758;BME280;52495;52.208;5.158;2023-05-07T00:44:59;101548.53;;;15.19;100.00
65758;BME280;52495;52.208;5.158;2023-05-07T00:47:28;101549.44;;;15.16;100.00
65758;BME280;52495;52.208;5.158;2023-05-07T00:49:57;101548.69;;;15.13;100.00
65758;BME280;52495;52.208;5.158;2023-05-07T00:52:26;101546.91;;;15.13;100.00
65758;BME280;52495;52.208;5.158;2023-05-07T00:54:53;101545.06;;;15.18;100.00
65758;BME280;52495;52.208;5.158;2023-05-07T00:57:28;101544.28;;;15.15;100.00
65758;BME280;52495;52.208;5.158;2023-05-07T00:59:55;101544.13;;;15.21;100.00
65758;BME280;52495;52.208;5.158;2023-05-07T01:02:22;101547.53;;;15.25;100.00
65758;BME280;52495;52.208;5.158;2023-05-07T01:04:51;101549.22;;;15.26;100.00
65758;BME280;52495;52.208;5.158;2023-05-07T01:07:20;101551.78;;;15.27;100.00
65758;BME280;52495;52.208;5.158;2023-05-07T01:09:48;101550.03;;;15.28;100.00
65758;BME280;52495;52.208;5.158;2023-05-07T01:12:15;101550.94;;;15.27;100.00
65758;BME280;52495;52.208;5.158;2023-05-07T01:14:43;101555.31;;;15.25;100.00
65758;BME280;52495;52.208;5.158;2023-05-07T01:17:12;101543.28;;;15.21;100.00
65758;BME280;52495;52.208;5.158;2023-05-07T01:19:39;101552.88;;;15.18;100.00
65758;BME280;52495;52.208;5.158;2023-05-07T01:22:09;101549.50;;;15.13;100.00
65758;BME280;52495;52.208;5.158;2023-05-07T01:24:50;101541.00;;;15.08;100.00
65758;BME280;52495;52.208;5.158;2023-05-07T01:27:24;101544.50;;;15.06;100.00
65758;BME280;52495;52.208;5.158;2023-05-07T01:29:51;101547.22;;;15.01;100.00
65758;BME280;52495;52.208;5.158;2023-05-07T01:32:21;101532.63;;;14.95;100.00
65758;BME280;52495;52.208;5.158;2023-05-07T01:34:52;101545.59;;;14.97;100.00
65758;BME280;52495;52.208;5.158;2023-05-07T01:37:29;101538.53;;;15.02;100.00
65758;BME280;52495;52.208;5.158;2023-05-07T01:40:00;101551.41;;;15.07;100.00
65758;BME280;52495;52.208;5.158;2023-05-07T01:42:30;101536.69;;;15.07;100.00
65758;BME280;52495;52.208;5.158;2023-05-07T01:45:02;101536.63;;;15.09;100.00
65758;BME280;52495;52.208;5.158;2023-05-07T01:47:30;101545.19;;;15.12;100.00
65758;BME280;52495;52.208;5.158;2023-05-07T01:49:59;101544.31;;;15.13;100.00
65758;BME280;52495;52.208;5.158;2023-05-07T01:52:27;101544.31;;;15.13;100.00
65758;BME280;52495;52.208;5.158;2023-05-07T01:54:58;101550.41;;;15.12;100.00
65758;BME280;52495;52.208;5.158;2023-05-07T01:57:25;101549.56;;;15.12;100.00
65758;BME280;52495;52.208;5.158;2023-05-07T01:59:54;101555.72;;;15.08;100.00
65758;BME280;52495;52.208;5.158;2023-05-07T02:02:21;101556.59;;;15.08;100.00
65758;BME280;52495;52.208;5.158;2023-05-07T02:04:49;101548.88;;;15.05;100.00
65758;BME280;52495;52.208;5.158;2023-05-07T02:07:19;101552.53;;;14.96;100.00
65758;BME280;52495;52.208;5.158;2023-05-07T02:09:49;101544.03;;;14.90;100.00
65758;BME280;52495;52.208;5.158;2023-05-07T02:12:20;101542.31;;;14.89;100.00
65758;BME280;52495;52.208;5.158;2023-05-07T02:14:49;101534.47;;;14.90;100.00
65758;BME280;52495;52.208;5.158;2023-05-07T02:17:16;101533.72;;;14.86;100.00
65758;BME280;52495;52.208;5.158;2023-05-07T02:19:46;101529.28;;;14.90;100.00
65758;BME280;52495;52.208;5.158;2023-05-07T02:22:13;101531.00;;;14.91;100.00
65758;BME280;52495;52.208;5.158;2023-05-07T02:24:40;101534.53;;;14.87;100.00
65758;BME280;52495;52.208;5.158;2023-05-07T02:27:07;101530.16;;;14.91;100.00
65758;BME280;52495;52.208;5.158;2023-05-07T02:29:37;101540.47;;;14.94;100.00
65758;BME280;52495;52.208;5.158;2023-05-07T02:32:06;101538.66;;;14.96;100.00
65758;BME280;52495;52.208;5.158;2023-05-07T02:34:33;101542.97;;;14.97;100.00
65758;BME280;52495;52.208;5.158;2023-05-07T02:37:01;101526.47;;;14.99;100.00
65758;BME280;52495;52.208;5.158;2023-05-07T02:39:28;101536.81;;;15.01;100.00
65758;BME280;52495;52.208;5.158;2023-05-07T02:42:04;101529.06;;;14.99;100.00
65758;BME280;52495;52.208;5.158;2023-05-07T02:44:31;101543.03;;;14.95;100.00
65758;BME280;52495;52.208;5.158;2023-05-07T02:47:00;101537.84;;;14.95;100.00
65758;BME280;52495;52.208;5.158;2023-05-07T02:49:28;101542.22;;;14.93;100.00
65758;BME280;52495;52.208;5.158;2023-05-07T02:51:55;101547.41;;;14.93;100.00
65758;BME280;52495;52.208;5.158;2023-05-07T02:54:27;101548.31;;;14.92;100.00
65758;BME280;52495;52.208;5.158;2023-05-07T02:56:55;101537.84;;;14.95;100.00
65758;BME280;52495;52.208;5.158;2023-05-07T02:59:26;101533.41;;;14.99;100.00
65758;BME280;52495;52.208;5.158;2023-05-07T03:02:02;101541.13;;;15.02;100.00
65758;BME280;52495;52.208;5.158;2023-05-07T03:04:29;101537.75;;;14.98;100.00
65758;BME280;52495;52.208;5.158;2023-05-07T03:06:56;101538.53;;;15.02;100.00
65758;BME280;52495;52.208;5.158;2023-05-07T03:09:23;101532.38;;;15.05;100.00
65758;BME280;52495;52.208;5.158;2023-05-07T03:11:50;101525.47;;;15.03;100.00
65758;BME280;52495;52.208;5.158;2023-05-07T03:14:17;101534.09;;;15.06;100.00
65758;BME280;52495;52.208;5.158;2023-05-07T03:16:46;101529.88;;;15.01;100.00
65758;BME280;52495;52.208;5.158;2023-05-07T03:19:14;101540.38;;;14.97;100.00
65758;BME280;52495;52.208;5.158;2023-05-07T03:21:41;101534.34;;;14.96;100.00
65758;BME280;52495;52.208;5.158;2023-05-07T03:24:08;101539.56;;;14.95;100.00
65758;BME280;52495;52.208;5.158;2023-05-07T03:26:35;101535.19;;;14.97;100.00
65758;BME280;52495;52.208;5.158;2023-05-07T03:29:02;101535.22;;;14.95;100.00
65758;BME280;52495;52.208;5.158;2023-05-07T03:31:29;101530.91;;;14.94;100.00
65758;BME280;52495;52.208;5.158;2023-05-07T03:33:57;101532.69;;;14.94;100.00
65758;BME280;52495;52.208;5.158;2023-05-07T03:36:26;101533.53;;;14.94;100.00
65758;BME280;52495;52.208;5.158;2023-05-07T03:38:54;101533.47;;;14.96;100.00
65758;BME280;52495;52.208;5.158;2023-05-07T03:41:24;101534.41;;;14.93;100.00
65758;BME280;52495;52.208;5.158;2023-05-07T03:43:51;101531.00;;;14.91;100.00
65758;BME280;52495;52.208;5.158;2023-05-07T03:46:18;101537.00;;;14.93;100.00
65758;BME280;52495;52.208;5.158;2023-05-07T03:48:46;101530.03;;;14.95;100.00
65758;BME280;52495;52.208;5.158;2023-05-07T03:51:14;101530.84;;;14.97;100.00
65758;BME280;52495;52.208;5.158;2023-05-07T03:53:42;101531.69;;;14.98;100.00
65758;BME280;52495;52.208;5.158;2023-05-07T03:56:09;101529.16;;;14.95;100.00
65758;BME280;52495;52.208;5.158;2023-05-07T03:58:48;101531.00;;;14.91;100.00
65758;BME280;52495;52.208;5.158;2023-05-07T04:01:15;101534.47;;;14.92;100.00
65758;BME280;52495;52.208;5.158;2023-05-07T04:03:45;101542.25;;;14.92;100.00
65758;BME280;52495;52.208;5.158;2023-05-07T04:06:12;101537.13;;;14.89;100.00
65758;BME280;52495;52.208;5.158;2023-05-07T04:08:44;101546.56;;;14.93;100.00
65758;BME280;52495;52.208;5.158;2023-05-07T04:11:14;101550.06;;;14.90;100.00
65758;BME280;52495;52.208;5.158;2023-05-07T04:13:41;101544.09;;;14.86;100.00
65758;BME280;52495;52.208;5.158;2023-05-07T04:16:08;101545.81;;;14.87;100.00
65758;BME280;52495;52.208;5.158;2023-05-07T04:18:37;101544.94;;;14.87;100.00
65758;BME280;52495;52.208;5.158;2023-05-07T04:21:05;101550.16;;;14.87;100.00
65758;BME280;52495;52.208;5.158;2023-05-07T04:23:36;101547.53;;;14.87;100.00
65758;BME280;52495;52.208;5.158;2023-05-07T04:26:08;101551.84;;;14.90;100.00
65758;BME280;52495;52.208;5.158;2023-05-07T04:28:39;101546.53;;;14.94;100.00
65758;BME280;52495;52.208;5.158;2023-05-07T04:31:07;101549.16;;;14.93;100.00
65758;BME280;52495;52.208;5.158;2023-05-07T04:33:45;101554.44;;;14.90;100.00
65758;BME280;52495;52.208;5.158;2023-05-07T04:36:13;101556.16;;;14.89;100.00
65758;BME280;52495;52.208;5.158;2023-05-07T04:38:47;101550.06;;;14.90;100.00
65758;BME280;52495;52.208;5.158;2023-05-07T04:41:17;101548.44;;;14.86;100.00
65758;BME280;52495;52.208;5.158;2023-05-07T04:43:44;101553.56;;;14.89;100.00
65758;BME280;52495;52.208;5.158;2023-05-07T04:46:13;101550.06;;;14.92;100.00
65758;BME280;52495;52.208;5.158;2023-05-07T04:48:41;101549.97;;;14.95;100.00
65758;BME280;52495;52.208;5.158;2023-05-07T04:51:08;101550.97;;;14.89;100.00
65758;BME280;52495;52.208;5.158;2023-05-07T04:53:35;101555.28;;;14.90;100.00
65758;BME280;52495;52.208;5.158;2023-05-07T04:56:02;101557.00;;;14.91;100.00
65758;BME280;52495;52.208;5.158;2023-05-07T04:58:38;101551.72;;;14.94;100.00
65758;BME280;52495;52.208;5.158;2023-05-07T05:01:05;101561.31;;;14.92;100.00
65758;BME280;52495;52.208;5.158;2023-05-07T05:03:31;101559.59;;;14.91;100.00
65758;BME280;52495;52.208;5.158;2023-05-07T05:05:58;101568.16;;;14.95;100.00
65758;BME280;52495;52.208;5.158;2023-05-07T05:08:32;101573.28;;;14.99;100.00
65758;BME280;52495;52.208;5.158;2023-05-07T05:11:01;101567.13;;;15.02;100.00
65758;BME280;52495;52.208;5.158;2023-05-07T05:13:28;101567.97;;;15.04;100.00
65758;BME280;52495;52.208;5.158;2023-05-07T05:15:57;101574.88;;;15.05;100.00
65758;BME280;52495;52.208;5.158;2023-05-07T05:18:25;101574.81;;;15.08;100.00
65758;BME280;52495;52.208;5.158;2023-05-07T05:20:52;101572.19;;;15.08;100.00
65758;BME280;52495;52.208;5.158;2023-05-07T05:23:19;101579.13;;;15.09;100.00
65758;BME280;52495;52.208;5.158;2023-05-07T05:25:46;101569.59;;;15.08;100.00
65758;BME280;52495;52.208;5.158;2023-05-07T05:28:14;101578.13;;;15.13;100.00
65758;BME280;52495;52.208;5.158;2023-05-07T05:30:41;101572.97;;;15.12;100.00
65758;BME280;52495;52.208;5.158;2023-05-07T05:33:10;101576.50;;;15.09;100.00
65758;BME280;52495;52.208;5.158;2023-05-07T05:35:37;101581.72;;;15.09;100.00
65758;BME280;52495;52.208;5.158;2023-05-07T05:38:09;101584.25;;;15.11;100.00
65758;BME280;52495;52.208;5.158;2023-05-07T05:40:36;101585.03;;;15.14;100.00
65758;BME280;52495;52.208;5.158;2023-05-07T05:43:02;101590.22;;;15.16;100.00
65758;BME280;52495;52.208;5.158;2023-05-07T05:45:30;101597.13;;;15.17;100.00
65758;BME280;52495;52.208;5.158;2023-05-07T05:47:57;101593.66;;;15.16;100.00
65758;BME280;52495;52.208;5.158;2023-05-07T05:50:25;101598.78;;;15.20;100.00
65758;BME280;52495;52.208;5.158;2023-05-07T05:52:53;101598.75;;;15.21;100.00
65758;BME280;52495;52.208;5.158;2023-05-07T05:55:21;101598.72;;;15.23;100.00
65758;BME280;52495;52.208;5.158;2023-05-07T05:57:48;101595.31;;;15.21;100.00
65758;BME280;52495;52.208;5.158;2023-05-07T06:00:16;101594.44;;;15.20;100.00
65758;BME280;52495;52.208;5.158;2023-05-07T06:02:45;101600.38;;;15.25;100.00
65758;BME280;52495;52.208;5.158;2023-05-07T06:05:18;101614.22;;;15.27;100.00
65758;BME280;52495;52.208;5.158;2023-05-07T06:07:48;101610.66;;;15.30;100.00
65758;BME280;52495;52.208;5.158;2023-05-07T06:10:15;101623.53;;;15.36;100.00
65758;BME280;52495;52.208;5.158;2023-05-07T06:12:42;101621.69;;;15.41;100.00
65758;BME280;52495;52.208;5.158;2023-05-07T06:15:10;101618.22;;;15.41;100.00
65758;BME280;52495;52.208;5.158;2023-05-07T06:17:37;101615.63;;;15.41;100.00
65758;BME280;52495;52.208;5.158;2023-05-07T06:20:06;101612.00;;;15.46;100.00
65758;BME280;52495;52.208;5.158;2023-05-07T06:22:33;101624.25;;;15.43;100.00
65758;BME280;52495;52.208;5.158;2023-05-07T06:25:02;101624.41;;;15.37;100.00
65758;BME280;52495;52.208;5.158;2023-05-07T06:27:29;101629.50;;;15.40;100.00
65758;BME280;52495;52.208;5.158;2023-05-07T06:29:56;101620.00;;;15.39;100.00
65758;BME280;52495;52.208;5.158;2023-05-07T06:32:24;101618.38;;;15.35;100.00
65758;BME280;52495;52.208;5.158;2023-05-07T06:34:51;101631.22;;;15.42;100.00
65758;BME280;52495;52.208;5.158;2023-05-07T06:37:18;101636.44;;;15.41;100.00
65758;BME280;52495;52.208;5.158;2023-05-07T06:39:59;101629.50;;;15.41;100.00
65758;BME280;52495;52.208;5.158;2023-05-07T06:42:29;101627.72;;;15.43;100.00
65758;BME280;52495;52.208;5.158;2023-05-07T06:44:59;101628.56;;;15.44;100.00
65758;BME280;52495;52.208;5.158;2023-05-07T06:47:29;101631.84;;;15.52;100.00
65758;BME280;52495;52.208;5.158;2023-05-07T06:49:56;101617.94;;;15.53;100.00
65758;BME280;52495;52.208;5.158;2023-05-07T06:52:26;101619.47;;;15.60;100.00
65758;BME280;52495;52.208;5.158;2023-05-07T06:54:54;101624.44;;;15.70;100.00
65758;BME280;52495;52.208;5.158;2023-05-07T06:57:22;101625.22;;;15.73;100.00
65758;BME280;52495;52.208;5.158;2023-05-07T06:59:50;101631.16;;;15.78;100.00
65758;BME280;52495;52.208;5.158;2023-05-07T07:02:18;101631.81;;;15.87;100.00
65758;BME280;52495;52.208;5.158;2023-05-07T07:04:46;101628.19;;;15.94;100.00
65758;BME280;52495;52.208;5.158;2023-05-07T07:07:13;101630.59;;;16.00;100.00
65758;BME280;52495;52.208;5.158;2023-05-07T07:09:42;101626.13;;;16.05;100.00
65758;BME280;52495;52.208;5.158;2023-05-07T07:12:10;101628.50;;;16.13;100.00
65758;BME280;52495;52.208;5.158;2023-05-07T07:14:39;101629.25;;;16.18;100.00
65758;BME280;52495;52.208;5.158;2023-05-07T07:17:07;101637.97;;;16.17;100.00
65758;BME280;52495;52.208;5.158;2023-05-07T07:19:35;101631.84;;;16.18;100.00
65758;BME280;52495;52.208;5.158;2023-05-07T07:22:03;101634.09;;;16.31;100.00
65758;BME280;52495;52.208;5.158;2023-05-07T07:24:31;101629.84;;;16.28;100.00
65758;BME280;52495;52.208;5.158;2023-05-07T07:27:02;101633.88;;;16.38;100.00
65758;BME280;52495;52.208;5.158;2023-05-07T07:29:30;101636.44;;;16.40;100.00
65758;BME280;52495;52.208;5.158;2023-05-07T07:31:57;101636.25;;;16.46;100.00
65758;BME280;52495;52.208;5.158;2023-05-07T07:36:52;101637.56;;;16.61;100.00
65758;BME280;52495;52.208;5.158;2023-05-07T07:39:19;101642.47;;;16.72;100.00
65758;BME280;52495;52.208;5.158;2023-05-07T07:41:49;101643.25;;;16.74;100.00
65758;BME280;52495;52.208;5.158;2023-05-07T07:44:17;101637.91;;;16.79;100.00
65758;BME280;52495;52.208;5.158;2023-05-07T07:46:49;101639.56;;;16.81;100.00
65758;BME280;52495;52.208;5.158;2023-05-07T07:49:16;101636.81;;;16.86;100.00
65758;BME280;52495;52.208;5.158;2023-05-07T07:51:45;101633.28;;;16.89;100.00
65758;BME280;52495;52.208;5.158;2023-05-07T07:54:12;101626.28;;;16.89;100.00
65758;BME280;52495;52.208;5.158;2023-05-07T07:56:40;101636.50;;;16.97;100.00
65758;BME280;52495;52.208;5.158;2023-05-07T07:59:08;101633.06;;;16.96;100.00
65758;BME280;52495;52.208;5.158;2023-05-07T08:01:37;101627.78;;;16.98;100.00
65758;BME280;52495;52.208;5.158;2023-05-07T08:04:05;101627.59;;;17.04;100.00
65758;BME280;52495;52.208;5.158;2023-05-07T08:06:35;101620.69;;;17.03;100.00
65758;BME280;52495;52.208;5.158;2023-05-07T08:09:03;101627.38;;;17.10;100.00
65758;BME280;52495;52.208;5.158;2023-05-07T08:11:30;101628.91;;;17.18;100.00
65758;BME280;52495;52.208;5.158;2023-05-07T08:13:58;101621.16;;;17.16;100.00
65758;BME280;52495;52.208;5.158;2023-05-07T08:16:28;101622.53;;;17.26;100.00
65758;BME280;52495;52.208;5.158;2023-05-07T08:18:55;101625.78;;;17.33;100.00
65758;BME280;52495;52.208;5.158;2023-05-07T08:21:22;101625.00;;;17.31;100.00
65758;BME280;52495;52.208;5.158;2023-05-07T08:23:49;101632.81;;;17.31;100.00
65758;BME280;52495;52.208;5.158;2023-05-07T08:26:17;101631.75;;;17.37;100.00
65758;BME280;52495;52.208;5.158;2023-05-07T08:28:44;101642.06;;;17.41;100.00
65758;BME280;52495;52.208;5.158;2023-05-07T08:31:11;101639.34;;;17.44;100.00
65758;BME280;52495;52.208;5.158;2023-05-07T08:33:40;101646.00;;;17.53;100.00
65758;BME280;52495;52.208;5.158;2023-05-07T08:36:07;101644.03;;;17.60;100.00
65758;BME280;52495;52.208;5.158;2023-05-07T08:38:34;101644.84;;;17.62;100.00
65758;BME280;52495;52.208;5.158;2023-05-07T08:41:01;101643.91;;;17.65;100.00
65758;BME280;52495;52.208;5.158;2023-05-07T08:43:32;101643.69;;;17.71;100.00
65758;BME280;52495;52.208;5.158;2023-05-07T08:46:01;101652.06;;;17.81;100.00
65758;BME280;52495;52.208;5.158;2023-05-07T08:48:32;101646.66;;;17.85;100.00
65758;BME280;52495;52.208;5.158;2023-05-07T08:51:11;101649.88;;;17.94;100.00
65758;BME280;52495;52.208;5.158;2023-05-07T08:53:40;101657.31;;;18.06;100.00
65758;BME280;52495;52.208;5.158;2023-05-07T08:56:10;101654.50;;;18.11;99.39
65758;BME280;52495;52.208;5.158;2023-05-07T08:58:40;101653.41;;;18.18;98.22
65758;BME280;52495;52.208;5.158;2023-05-07T09:01:08;101657.63;;;18.22;97.39
65758;BME280;52495;52.208;5.158;2023-05-07T09:03:37;101659.44;;;18.20;95.55
65758;BME280;52495;52.208;5.158;2023-05-07T09:06:05;101649.66;;;18.25;96.25
65758;BME280;52495;52.208;5.158;2023-05-07T09:08:33;101657.84;;;18.40;96.33
65758;BME280;52495;52.208;5.158;2023-05-07T09:11:02;101662.28;;;18.61;95.39
65758;BME280;52495;52.208;5.158;2023-05-07T09:13:30;101660.81;;;18.76;94.67
65758;BME280;52495;52.208;5.158;2023-05-07T09:16:09;101659.22;;;18.96;93.29
65758;BME280;52495;52.208;5.158;2023-05-07T09:18:40;101657.88;;;19.08;89.39
65758;BME280;52495;52.208;5.158;2023-05-07T09:21:10;101663.78;;;19.13;88.44
65758;BME280;52495;52.208;5.158;2023-05-07T09:23:38;101666.81;;;19.24;88.22
65758;BME280;52495;52.208;5.158;2023-05-07T09:26:06;101671.50;;;19.38;86.97
65758;BME280;52495;52.208;5.158;2023-05-07T09:28:41;101665.16;;;19.44;85.65
65758;BME280;52495;52.208;5.158;2023-05-07T09:31:11;101653.56;;;19.50;86.20
65758;BME280;52495;52.208;5.158;2023-05-07T09:33:39;101657.56;;;19.59;85.91
65758;BME280;52495;52.208;5.158;2023-05-07T09:36:09;101664.53;;;19.60;85.34
65758;BME280;52495;52.208;5.158;2023-05-07T09:38:38;101659.00;;;19.66;84.35
65758;BME280;52495;52.208;5.158;2023-05-07T09:41:06;101657.78;;;19.54;82.06
65758;BME280;52495;52.208;5.158;2023-05-07T09:43:40;101660.25;;;19.57;82.64
65758;BME280;52495;52.208;5.158;2023-05-07T09:46:13;101650.56;;;19.59;82.21
65758;BME280;52495;52.208;5.158;2023-05-07T09:48:45;101653.84;;;19.64;81.20
65758;BME280;52495;52.208;5.158;2023-05-07T09:51:21;101660.59;;;19.70;81.37
65758;BME280;52495;52.208;5.158;2023-05-07T09:53:50;101654.03;;;19.80;81.69
65758;BME280;52495;52.208;5.158;2023-05-07T09:56:19;101645.91;;;19.86;80.49
65758;BME280;52495;52.208;5.158;2023-05-07T09:58:47;101651.03;;;19.90;80.71
65758;BME280;52495;52.208;5.158;2023-05-07T10:01:17;101640.22;;;19.97;80.76
65758;BME280;52495;52.208;5.158;2023-05-07T10:03:45;101647.47;;;20.11;79.00
65758;BME280;52495;52.208;5.158;2023-05-07T10:06:14;101651.16;;;20.26;79.26
65758;BME280;52495;52.208;5.158;2023-05-07T10:08:42;101647.50;;;20.30;79.36
65758;BME280;52495;52.208;5.158;2023-05-07T10:11:09;101647.09;;;20.40;79.00
65758;BME280;52495;52.208;5.158;2023-05-07T10:13:37;101646.88;;;20.44;78.40
65758;BME280;52495;52.208;5.158;2023-05-07T10:16:06;101654.38;;;20.52;77.17
65758;BME280;52495;52.208;5.158;2023-05-07T10:18:42;101660.34;;;20.56;76.77
65758;BME280;52495;52.208;5.158;2023-05-07T10:21:17;101654.03;;;20.60;76.93
65758;BME280;52495;52.208;5.158;2023-05-07T10:23:47;101663.16;;;20.70;77.19
65758;BME280;52495;52.208;5.158;2023-05-07T10:26:15;101655.97;;;20.75;75.88
65758;BME280;52495;52.208;5.158;2023-05-07T10:28:46;101647.22;;;20.75;75.71
65758;BME280;52495;52.208;5.158;2023-05-07T10:31:34;101651.28;;;20.82;75.72
65758;BME280;52495;52.208;5.158;2023-05-07T10:34:10;101649.69;;;20.97;75.13
65758;BME280;52495;52.208;5.158;2023-05-07T10:36:37;101651.16;;;21.03;74.85
65758;BME280;52495;52.208;5.158;2023-05-07T10:39:06;101658.66;;;21.11;73.61
65758;BME280;52495;52.208;5.158;2023-05-07T10:41:34;101657.81;;;21.10;73.12
65758;BME280;52495;52.208;5.158;2023-05-07T10:44:05;101657.50;;;21.16;74.38
65758;BME280;52495;52.208;5.158;2023-05-07T10:46:33;101665.00;;;21.24;72.91
65758;BME280;52495;52.208;5.158;2023-05-07T10:49:17;101663.03;;;21.29;72.53
65758;BME280;52495;52.208;5.158;2023-05-07T10:52:12;101653.69;;;21.41;73.25
65758;BME280;52495;52.208;5.158;2023-05-07T10:54:45;101653.91;;;21.54;72.93
65758;BME280;52495;52.208;5.158;2023-05-07T10:57:33;101657.31;;;21.74;70.61
65758;BME280;52495;52.208;5.158;2023-05-07T11:00:40;101654.94;;;21.69;69.50
65758;BME280;52495;52.208;5.158;2023-05-07T11:03:14;101640.34;;;21.63;69.54
65758;BME280;52495;52.208;5.158;2023-05-07T11:06:14;101660.44;;;21.64;70.80
65758;BME280;52495;52.208;5.158;2023-05-07T11:08:55;101667.25;;;21.68;70.10
65758;BME280;52495;52.208;5.158;2023-05-07T11:11:44;101664.22;;;21.76;68.00
65758;BME280;52495;52.208;5.158;2023-05-07T11:14:44;101662.41;;;21.77;68.67
65758;BME280;52495;52.208;5.158;2023-05-07T11:17:16;101661.00;;;21.87;67.88
65758;BME280;52495;52.208;5.158;2023-05-07T11:19:50;101650.59;;;21.86;66.71
65758;BME280;52495;52.208;5.158;2023-05-07T11:22:39;101661.63;;;21.92;65.53
65758;BME280;52495;52.208;5.158;2023-05-07T11:25:17;101664.34;;;21.91;63.94
65758;BME280;52495;52.208;5.158;2023-05-07T11:27:44;101661.47;;;21.95;64.47
65758;BME280;52495;52.208;5.158;2023-05-07T11:30:17;101657.66;;;22.01;65.66
65758;BME280;52495;52.208;5.158;2023-05-07T11:32:48;101661.91;;;22.04;62.52
65758;BME280;52495;52.208;5.158;2023-05-07T11:35:17;101657.78;;;22.16;62.52
65758;BME280;52495;52.208;5.158;2023-05-07T11:37:49;101663.56;;;22.22;61.07
65758;BME280;52495;52.208;5.158;2023-05-07T11:40:16;101657.13;;;22.28;62.22
65758;BME280;52495;52.208;5.158;2023-05-07T11:42:43;101660.28;;;22.35;60.90
65758;BME280;52495;52.208;5.158;2023-05-07T11:45:10;101665.63;;;22.33;61.17
65758;BME280;52495;52.208;5.158;2023-05-07T11:47:37;101659.69;;;22.29;58.88
65758;BME280;52495;52.208;5.158;2023-05-07T11:50:07;101658.97;;;22.43;60.31
65758;BME280;52495;52.208;5.158;2023-05-07T11:52:36;101654.72;;;22.57;60.14
65758;BME280;52495;52.208;5.158;2023-05-07T11:55:07;101655.56;;;22.57;58.51
65758;BME280;52495;52.208;5.158;2023-05-07T11:57:34;101658.03;;;22.61;58.45
65758;BME280;52495;52.208;5.158;2023-05-07T12:00:01;101663.81;;;22.67;59.12
65758;BME280;52495;52.208;5.158;2023-05-07T12:02:38;101662.94;;;22.83;58.41
65758;BME280;52495;52.208;5.158;2023-05-07T12:05:05;101660.81;;;22.89;56.61
65758;BME280;52495;52.208;5.158;2023-05-07T12:07:33;101660.63;;;22.93;56.73
65758;BME280;52495;52.208;5.158;2023-05-07T12:10:05;101658.34;;;23.02;55.01
65758;BME280;52495;52.208;5.158;2023-05-07T12:12:38;101657.91;;;23.10;53.81
65758;BME280;52495;52.208;5.158;2023-05-07T12:15:05;101665.34;;;23.18;55.31
65758;BME280;52495;52.208;5.158;2023-05-07T12:17:32;101661.03;;;23.33;55.21
65758;BME280;52495;52.208;5.158;2023-05-07T12:20:00;101658.44;;;23.47;55.45
65758;BME280;52495;52.208;5.158;2023-05-07T12:22:27;101658.72;;;23.57;53.99
65758;BME280;52495;52.208;5.158;2023-05-07T12:24:57;101652.41;;;23.45;53.54
65758;BME280;52495;52.208;5.158;2023-05-07T12:27:26;101659.06;;;23.37;54.15
65758;BME280;52495;52.208;5.158;2023-05-07T12:29:52;101656.38;;;23.22;54.60
65758;BME280;52495;52.208;5.158;2023-05-07T12:32:21;101652.53;;;23.28;55.62
65758;BME280;52495;52.208;5.158;2023-05-07T12:34:50;101657.00;;;23.42;55.96
65758;BME280;52495;52.208;5.158;2023-05-07T12:37:23;101653.78;;;23.37;54.41
65758;BME280;52495;52.208;5.158;2023-05-07T12:40:03;101649.63;;;23.32;54.36
65758;BME280;52495;52.208;5.158;2023-05-07T12:42:35;101657.94;;;23.41;53.18
65758;BME280;52495;52.208;5.158;2023-05-07T12:45:08;101656.69;;;23.32;53.68
65758;BME280;52495;52.208;5.158;2023-05-07T12:47:35;101652.69;;;23.25;54.91
65758;BME280;52495;52.208;5.158;2023-05-07T12:50:04;101651.00;;;23.24;56.07
65758;BME280;52495;52.208;5.158;2023-05-07T12:52:31;101663.47;;;23.20;56.17
65758;BME280;52495;52.208;5.158;2023-05-07T12:55:04;101658.66;;;23.12;56.42
65758;BME280;52495;52.208;5.158;2023-05-07T12:57:38;101660.47;;;23.12;55.80